sensor_id;sensor_type;location;lat;lon;timestamp;pressure;altitude;pressure_sealevel;temperature;humidity
68230;BME280;55048;52.220;5.160;2023-03-04T00:00:38;102614.84;;;7.30;68.36
68230;BME280;55048;52.220;5.160;2023-03-04T00:03:08;102603.50;;;7.13;68.51
68230;BME280;55048;52.220;5.160;2023-03-04T00:05:36;102512.41;;;6.60;68.66
68230;BME280;55048;52.220;5.160;2023-03-04T00:08:02;102602.50;;;7.14;68.35
68230;BME280;55048;52.220;5.160;2023-03-04T00:10:28;102637.34;;;7.26;68.85
68230;BME280;55048;52.220;5.160;2023-03-04T00:12:53;102579.25;;;6.94;68.41
68230;BME280;55048;52.220;5.160;2023-03-04T00:15:19;102567.84;;;6.85;68.80
68230;BME280;55048;52.220;5.160;2023-03-04T00:17:44;102414.56;;;5.80;68.54
68230;BME280;55048;52.220;5.160;2023-03-04T00:20:11;102635.25;;;7.13;68.71
68230;BME280;55048;52.220;5.160;2023-03-04T00:22:36;102620.72;;;7.09;68.83
68230;BME280;55048;52.220;5.160;2023-03-04T00:25:02;102566.56;;;6.81;68.70
68230;BME280;55048;52.220;5.160;2023-03-04T00:27:27;102539.84;;;6.51;68.69
68230;BME280;55048;52.220;5.160;2023-03-04T00:29:53;102604.38;;;6.98;68.79
68230;BME280;55048;52.220;5.160;2023-03-04T00:32:18;102601.53;;;6.99;68.66
68230;BME280;55048;52.220;5.160;2023-03-04T00:34:44;102542.94;;;6.71;68.75
68230;BME280;55048;52.220;5.160;2023-03-04T00:37:09;102623.63;;;7.23;68.72
68230;BME280;55048;52.220;5.160;2023-03-04T00:39:35;102601.53;;;6.99;68.70
68230;BME280;55048;52.220;5.160;2023-03-04T00:42:00;102538.31;;;6.65;68.62
68230;BME280;55048;52.220;5.160;2023-03-04T00:44:25;102538.50;;;6.47;68.50
68230;BME280;55048;52.220;5.160;2023-03-04T00:46:51;102498.59;;;6.18;68.42
68230;BME280;55048;52.220;5.160;2023-03-04T00:49:16;102573.38;;;6.59;68.35
68230;BME280;55048;52.220;5.160;2023-03-04T00:51:41;102613.63;;;6.94;68.11
68230;BME280;55048;52.220;5.160;2023-03-04T00:54:07;102553.06;;;6.51;68.08
68230;BME280;55048;52.220;5.160;2023-03-04T00:56:32;102593.84;;;6.81;67.48
68230;BME280;55048;52.220;5.160;2023-03-04T00:58:58;102623.38;;;7.01;67.74
68230;BME280;55048;52.220;5.160;2023-03-04T01:01:24;102574.19;;;6.68;68.09
68230;BME280;55048;52.220;5.160;2023-03-04T01:03:50;102563.31;;;6.54;68.07
68230;BME280;55048;52.220;5.160;2023-03-04T01:06:15;102638.41;;;7.09;67.98
68230;BME280;55048;52.220;5.160;2023-03-04T01:08:40;102591.53;;;6.70;67.97
68230;BME280;55048;52.220;5.160;2023-03-04T01:11:06;102627.34;;;6.97;67.82
68230;BME280;55048;52.220;5.160;2023-03-04T01:13:32;102645.34;;;7.10;67.83
68230;BME280;55048;52.220;5.160;2023-03-04T01:15:58;102644.69;;;7.08;68.10
68230;BME280;55048;52.220;5.160;2023-03-04T01:18:24;102613.63;;;7.02;68.02
68230;BME280;55048;52.220;5.160;2023-03-04T01:20:50;102622.69;;;7.07;67.96
68230;BME280;55048;52.220;5.160;2023-03-04T01:23:16;102565.56;;;6.74;68.49
68230;BME280;55048;52.220;5.160;2023-03-04T01:25:41;102579.78;;;6.81;68.51
68230;BME280;55048;52.220;5.160;2023-03-04T01:28:06;102634.09;;;7.08;68.66
68230;BME280;55048;52.220;5.160;2023-03-04T01:30:33;102619.22;;;7.07;68.83
68230;BME280;55048;52.220;5.160;2023-03-04T01:32:59;102568.03;;;6.83;68.45
68230;BME280;55048;52.220;5.160;2023-03-04T01:35:24;102599.25;;;7.04;68.58
68230;BME280;55048;52.220;5.160;2023-03-04T01:37:49;102436.84;;;6.10;68.20
68230;BME280;55048;52.220;5.160;2023-03-04T01:40:15;102573.00;;;6.86;68.40
68230;BME280;55048;52.220;5.160;2023-03-04T01:42:42;102599.06;;;7.06;68.61
68230;BME280;55048;52.220;5.160;2023-03-04T01:45:12;102608.44;;;7.16;68.76
68230;BME280;55048;52.220;5.160;2023-03-04T01:47:38;102587.19;;;6.94;68.34
68230;BME280;55048;52.220;5.160;2023-03-04T01:50:06;102577.72;;;6.99;68.47
68230;BME280;55048;52.220;5.160;2023-03-04T01:52:36;102551.84;;;6.86;67.89
68230;BME280;55048;52.220;5.160;2023-03-04T01:55:10;102596.72;;;7.11;68.21
68230;BME280;55048;52.220;5.160;2023-03-04T01:57:38;102548.19;;;6.87;67.89
68230;BME280;55048;52.220;5.160;2023-03-04T02:00:24;102590.78;;;7.09;67.80
68230;BME280;55048;52.220;5.160;2023-03-04T02:02:53;102526.41;;;6.77;67.43
68230;BME280;55048;52.220;5.160;2023-03-04T02:05:20;102445.94;;;6.16;67.31
68230;BME280;55048;52.220;5.160;2023-03-04T02:07:47;102580.53;;;7.06;67.49
68230;BME280;55048;52.220;5.160;2023-03-04T02:10:13;102485.50;;;6.41;67.67
68230;BME280;55048;52.220;5.160;2023-03-04T02:12:39;102549.84;;;6.80;67.66
68230;BME280;55048;52.220;5.160;2023-03-04T02:15:05;102527.75;;;6.73;67.54
68230;BME280;55048;52.220;5.160;2023-03-04T02:17:31;102571.94;;;7.04;67.69
68230;BME280;55048;52.220;5.160;2023-03-04T02:22:25;102527.56;;;6.75;67.94
68230;BME280;55048;52.220;5.160;2023-03-04T02:24:59;102508.56;;;6.71;68.08
68230;BME280;55048;52.220;5.160;2023-03-04T02:27:27;102536.59;;;6.88;68.09
68230;BME280;55048;52.220;5.160;2023-03-04T02:29:53;102512.06;;;6.72;68.25
68230;BME280;55048;52.220;5.160;2023-03-04T02:32:19;102559.88;;;7.01;68.19
68230;BME280;55048;52.220;5.160;2023-03-04T02:34:46;102541.72;;;6.90;67.86
68230;BME280;55048;52.220;5.160;2023-03-04T02:37:13;102531.81;;;6.92;67.95
68230;BME280;55048;52.220;5.160;2023-03-04T02:39:45;102536.38;;;7.06;68.05
68230;BME280;55048;52.220;5.160;2023-03-04T02:42:11;102530.78;;;7.01;67.71
68230;BME280;55048;52.220;5.160;2023-03-04T02:44:39;102534.25;;;7.02;67.72
68230;BME280;55048;52.220;5.160;2023-03-04T02:47:07;102550.25;;;7.08;67.83
68230;BME280;55048;52.220;5.160;2023-03-04T02:49:35;102538.84;;;7.08;67.81
68230;BME280;55048;52.220;5.160;2023-03-04T02:52:04;102434.63;;;6.38;67.96
68230;BME280;55048;52.220;5.160;2023-03-04T02:54:31;102505.88;;;6.87;67.70
68230;BME280;55048;52.220;5.160;2023-03-04T02:57:01;102498.13;;;6.86;67.72
68230;BME280;55048;52.220;5.160;2023-03-04T02:59:27;102519.69;;;7.06;67.57
68230;BME280;55048;52.220;5.160;2023-03-04T03:01:53;102524.81;;;7.07;67.70
68230;BME280;55048;52.220;5.160;2023-03-04T03:04:20;102520.19;;;7.09;67.76
68230;BME280;55048;52.220;5.160;2023-03-04T03:06:47;102513.72;;;7.12;67.82
68230;BME280;55048;52.220;5.160;2023-03-04T03:09:13;102520.19;;;7.09;67.98
68230;BME280;55048;52.220;5.160;2023-03-04T03:11:39;102477.00;;;6.78;68.23
68230;BME280;55048;52.220;5.160;2023-03-04T03:14:05;102524.47;;;7.10;68.26
68230;BME280;55048;52.220;5.160;2023-03-04T03:16:30;102450.94;;;6.58;68.40
68230;BME280;55048;52.220;5.160;2023-03-04T03:18:56;102473.72;;;6.68;68.33
68230;BME280;55048;52.220;5.160;2023-03-04T03:21:23;102460.84;;;6.64;68.51
68230;BME280;55048;52.220;5.160;2023-03-04T03:23:49;102505.84;;;6.96;69.11
68230;BME280;55048;52.220;5.160;2023-03-04T03:26:14;102498.06;;;6.94;68.51
68230;BME280;55048;52.220;5.160;2023-03-04T03:28:40;102348.72;;;6.03;68.47
68230;BME280;55048;52.220;5.160;2023-03-04T03:31:05;102515.72;;;7.10;68.60
68230;BME280;55048;52.220;5.160;2023-03-04T03:33:31;102447.78;;;6.63;69.01
68230;BME280;55048;52.220;5.160;2023-03-04T03:35:56;102447.75;;;6.71;68.70
68230;BME280;55048;52.220;5.160;2023-03-04T03:38:22;102474.34;;;6.78;69.36
68230;BME280;55048;52.220;5.160;2023-03-04T03:40:47;102404.91;;;6.36;69.40
68230;BME280;55048;52.220;5.160;2023-03-04T03:43:13;102418.63;;;6.40;69.93
68230;BME280;55048;52.220;5.160;2023-03-04T03:45:38;102412.53;;;6.39;69.80
68230;BME280;55048;52.220;5.160;2023-03-04T03:48:04;102394.22;;;6.22;70.35
68230;BME280;55048;52.220;5.160;2023-03-04T03:50:29;102383.03;;;6.11;70.17
68230;BME280;55048;52.220;5.160;2023-03-04T03:52:55;102442.41;;;6.40;70.25
68230;BME280;55048;52.220;5.160;2023-03-04T03:55:20;102530.09;;;7.07;69.94
68230;BME280;55048;52.220;5.160;2023-03-04T03:57:46;102480.25;;;6.88;70.00
68230;BME280;55048;52.220;5.160;2023-03-04T04:00:12;102490.84;;;6.80;70.02
68230;BME280;55048;52.220;5.160;2023-03-04T04:02:38;102531.22;;;7.13;69.94
68230;BME280;55048;52.220;5.160;2023-03-04T04:05:05;102522.00;;;7.09;70.45
68230;BME280;55048;52.220;5.160;2023-03-04T04:07:31;102361.44;;;5.92;70.16
68230;BME280;55048;52.220;5.160;2023-03-04T04:09:56;102485.25;;;6.75;71.13
68230;BME280;55048;52.220;5.160;2023-03-04T04:12:22;102479.97;;;6.67;71.36
68230;BME280;55048;52.220;5.160;2023-03-04T04:14:47;102514.44;;;6.98;71.42
68230;BME280;55048;52.220;5.160;2023-03-04T04:17:13;102455.13;;;6.45;72.11
68230;BME280;55048;52.220;5.160;2023-03-04T04:19:39;102519.44;;;6.84;72.02
68230;BME280;55048;52.220;5.160;2023-03-04T04:22:06;102524.88;;;6.91;71.58
68230;BME280;55048;52.220;5.160;2023-03-04T04:24:33;102307.88;;;5.50;72.09
68230;BME280;55048;52.220;5.160;2023-03-04T04:26:58;102324.19;;;5.54;71.76
68230;BME280;55048;52.220;5.160;2023-03-04T04:29:23;102489.38;;;6.77;72.15
68230;BME280;55048;52.220;5.160;2023-03-04T04:31:49;102479.34;;;6.64;72.81
68230;BME280;55048;52.220;5.160;2023-03-04T04:34:14;102497.66;;;6.74;72.63
68230;BME280;55048;52.220;5.160;2023-03-04T04:36:40;102518.59;;;6.92;72.69
68230;BME280;55048;52.220;5.160;2023-03-04T04:39:05;102457.41;;;6.48;72.64
68230;BME280;55048;52.220;5.160;2023-03-04T04:41:36;102509.22;;;6.73;72.60
68230;BME280;55048;52.220;5.160;2023-03-04T04:44:02;102483.81;;;6.64;72.64
68230;BME280;55048;52.220;5.160;2023-03-04T04:46:28;102503.09;;;6.81;72.67
68230;BME280;55048;52.220;5.160;2023-03-04T04:48:54;102524.72;;;6.84;72.79
68230;BME280;55048;52.220;5.160;2023-03-04T04:51:20;102478.00;;;6.69;73.21
68230;BME280;55048;52.220;5.160;2023-03-04T04:53:45;102325.50;;;5.74;72.57
68230;BME280;55048;52.220;5.160;2023-03-04T04:56:13;102520.06;;;6.95;72.81
68230;BME280;55048;52.220;5.160;2023-03-04T04:58:39;102497.16;;;6.71;73.38
68230;BME280;55048;52.220;5.160;2023-03-04T05:01:04;102330.78;;;5.50;73.27
68230;BME280;55048;52.220;5.160;2023-03-04T05:03:31;102503.75;;;6.83;73.30
68230;BME280;55048;52.220;5.160;2023-03-04T05:05:57;102510.34;;;6.87;73.39
68230;BME280;55048;52.220;5.160;2023-03-04T05:08:22;102319.38;;;5.74;72.81
68230;BME280;55048;52.220;5.160;2023-03-04T05:10:48;102440.72;;;6.47;73.15
68230;BME280;55048;52.220;5.160;2023-03-04T05:13:13;102449.47;;;6.48;73.40
68230;BME280;55048;52.220;5.160;2023-03-04T05:15:39;102454.94;;;6.46;73.13
68230;BME280;55048;52.220;5.160;2023-03-04T05:18:04;102426.06;;;6.36;73.83
68230;BME280;55048;52.220;5.160;2023-03-04T05:20:29;102462.50;;;6.57;73.07
68230;BME280;55048;52.220;5.160;2023-03-04T05:22:55;102414.88;;;6.26;72.81
68230;BME280;55048;52.220;5.160;2023-03-04T05:25:20;102462.34;;;6.59;73.09
68230;BME280;55048;52.220;5.160;2023-03-04T05:27:46;102390.28;;;6.18;73.09
68230;BME280;55048;52.220;5.160;2023-03-04T05:30:11;102525.31;;;7.03;72.96
68230;BME280;55048;52.220;5.160;2023-03-04T05:32:37;102469.09;;;6.61;73.35
68230;BME280;55048;52.220;5.160;2023-03-04T05:35:03;102500.47;;;6.73;74.32
68230;BME280;55048;52.220;5.160;2023-03-04T05:37:28;102483.50;;;6.51;74.51
68230;BME280;55048;52.220;5.160;2023-03-04T05:39:54;102360.44;;;5.76;74.20
68230;BME280;55048;52.220;5.160;2023-03-04T05:42:19;102534.16;;;6.87;73.83
68230;BME280;55048;52.220;5.160;2023-03-04T05:44:44;102453.31;;;6.37;74.86
68230;BME280;55048;52.220;5.160;2023-03-04T05:47:10;102551.34;;;6.75;75.03
68230;BME280;55048;52.220;5.160;2023-03-04T05:49:35;102450.16;;;6.42;74.38
68230;BME280;55048;52.220;5.160;2023-03-04T05:52:00;102370.31;;;5.91;74.66
68230;BME280;55048;52.220;5.160;2023-03-04T05:54:26;102558.59;;;6.89;74.53
68230;BME280;55048;52.220;5.160;2023-03-04T05:56:51;102488.94;;;6.57;74.89
68230;BME280;55048;52.220;5.160;2023-03-04T05:59:17;102273.25;;;5.29;74.00
68230;BME280;55048;52.220;5.160;2023-03-04T06:01:45;102448.06;;;6.21;74.36
68230;BME280;55048;52.220;5.160;2023-03-04T06:04:11;102482.81;;;6.57;74.33
68230;BME280;55048;52.220;5.160;2023-03-04T06:06:36;102527.88;;;6.80;73.99
68230;BME280;55048;52.220;5.160;2023-03-04T06:09:02;102474.38;;;6.61;75.33
68230;BME280;55048;52.220;5.160;2023-03-04T06:11:28;102351.06;;;5.74;74.21
68230;BME280;55048;52.220;5.160;2023-03-04T06:13:53;102337.19;;;5.80;74.22
68230;BME280;55048;52.220;5.160;2023-03-04T06:16:18;102378.41;;;6.13;75.04
68230;BME280;55048;52.220;5.160;2023-03-04T06:18:44;102258.25;;;5.29;75.17
68230;BME280;55048;52.220;5.160;2023-03-04T06:21:09;102314.44;;;5.71;75.78
68230;BME280;55048;52.220;5.160;2023-03-04T06:23:35;102310.84;;;5.55;75.43
68230;BME280;55048;52.220;5.160;2023-03-04T06:26:00;102516.44;;;6.87;76.43
68230;BME280;55048;52.220;5.160;2023-03-04T06:28:27;102514.00;;;6.78;76.45
68230;BME280;55048;52.220;5.160;2023-03-04T06:30:54;102523.88;;;6.92;75.94
68230;BME280;55048;52.220;5.160;2023-03-04T06:33:21;102457.06;;;6.59;75.34
68230;BME280;55048;52.220;5.160;2023-03-04T06:35:47;102510.63;;;7.00;75.48
68230;BME280;55048;52.220;5.160;2023-03-04T06:38:13;102480.44;;;6.78;75.12
68230;BME280;55048;52.220;5.160;2023-03-04T06:40:38;102410.38;;;6.35;75.25
68230;BME280;55048;52.220;5.160;2023-03-04T06:43:04;102509.16;;;6.89;75.29
68230;BME280;55048;52.220;5.160;2023-03-04T06:45:29;102476.69;;;6.73;75.10
68230;BME280;55048;52.220;5.160;2023-03-04T06:47:55;102393.75;;;6.18;75.11
68230;BME280;55048;52.220;5.160;2023-03-04T06:50:20;102529.47;;;7.05;75.39
68230;BME280;55048;52.220;5.160;2023-03-04T06:52:45;102528.31;;;7.00;75.70
68230;BME280;55048;52.220;5.160;2023-03-04T06:55:11;102484.28;;;6.68;75.54
68230;BME280;55048;52.220;5.160;2023-03-04T06:57:37;102384.50;;;6.06;76.20
68230;BME280;55048;52.220;5.160;2023-03-04T07:00:04;102532.66;;;6.84;76.88
68230;BME280;55048;52.220;5.160;2023-03-04T07:02:30;102538.63;;;6.78;77.43
68230;BME280;55048;52.220;5.160;2023-03-04T07:04:55;102508.94;;;6.60;77.93
68230;BME280;55048;52.220;5.160;2023-03-04T07:07:21;102534.66;;;6.82;77.62
68230;BME280;55048;52.220;5.160;2023-03-04T07:09:46;102375.78;;;5.89;77.11
68230;BME280;55048;52.220;5.160;2023-03-04T07:12:11;102367.53;;;5.68;77.61
68230;BME280;55048;52.220;5.160;2023-03-04T07:14:37;102481.19;;;6.48;77.34
68230;BME280;55048;52.220;5.160;2023-03-04T07:17:02;102551.47;;;6.89;77.75
68230;BME280;55048;52.220;5.160;2023-03-04T07:19:28;102538.97;;;6.75;77.52
68230;BME280;55048;52.220;5.160;2023-03-04T07:21:53;102329.63;;;5.60;77.18
68230;BME280;55048;52.220;5.160;2023-03-04T07:24:19;102542.00;;;7.03;76.89
68230;BME280;55048;52.220;5.160;2023-03-04T07:26:44;102312.81;;;5.45;76.67
68230;BME280;55048;52.220;5.160;2023-03-04T07:29:09;102195.78;;;4.89;77.03
68230;BME280;55048;52.220;5.160;2023-03-04T07:31:36;102469.78;;;6.63;76.71
68230;BME280;55048;52.220;5.160;2023-03-04T07:34:05;102499.25;;;6.92;76.53
68230;BME280;55048;52.220;5.160;2023-03-04T07:36:31;102396.50;;;6.33;76.49
68230;BME280;55048;52.220;5.160;2023-03-04T07:38:57;102514.50;;;7.21;76.35
68230;BME280;55048;52.220;5.160;2023-03-04T07:41:24;102546.66;;;7.40;76.37
68230;BME280;55048;52.220;5.160;2023-03-04T07:43:50;102412.97;;;6.51;76.21
68230;BME280;55048;52.220;5.160;2023-03-04T07:46:17;102506.13;;;7.09;76.33
68230;BME280;55048;52.220;5.160;2023-03-04T07:48:42;102476.91;;;6.94;76.19
68230;BME280;55048;52.220;5.160;2023-03-04T07:51:17;102555.25;;;7.43;76.60
68230;BME280;55048;52.220;5.160;2023-03-04T07:53:47;102551.78;;;7.42;77.18
68230;BME280;55048;52.220;5.160;2023-03-04T07:56:16;102457.97;;;6.82;77.02
68230;BME280;55048;52.220;5.160;2023-03-04T07:58:41;102556.28;;;7.33;76.99
68230;BME280;55048;52.220;5.160;2023-03-04T08:01:13;102562.97;;;7.52;76.55
68230;BME280;55048;52.220;5.160;2023-03-04T08:03:38;102505.75;;;7.20;76.52
68230;BME280;55048;52.220;5.160;2023-03-04T08:06:05;102549.75;;;7.52;76.70
68230;BME280;55048;52.220;5.160;2023-03-04T08:08:31;102459.16;;;7.11;76.23
68230;BME280;55048;52.220;5.160;2023-03-04T08:10:57;102503.78;;;7.45;76.16
68230;BME280;55048;52.220;5.160;2023-03-04T08:13:22;102481.69;;;7.30;76.53
68230;BME280;55048;52.220;5.160;2023-03-04T08:15:48;102470.63;;;7.26;76.39
68230;BME280;55048;52.220;5.160;2023-03-04T08:18:13;102495.84;;;7.45;76.38
68230;BME280;55048;52.220;5.160;2023-03-04T08:20:42;102567.91;;;7.86;76.73
68230;BME280;55048;52.220;5.160;2023-03-04T08:23:09;102567.94;;;7.78;76.99
68230;BME280;55048;52.220;5.160;2023-03-04T08:25:38;102558.84;;;7.81;76.56
68230;BME280;55048;52.220;5.160;2023-03-04T08:28:03;102422.97;;;7.03;76.71
68230;BME280;55048;52.220;5.160;2023-03-04T08:30:29;102529.47;;;7.67;76.90
68230;BME280;55048;52.220;5.160;2023-03-04T08:32:54;102596.94;;;8.03;76.57
68230;BME280;55048;52.220;5.160;2023-03-04T08:35:20;102551.28;;;7.92;76.64
68230;BME280;55048;52.220;5.160;2023-03-04T08:37:45;102490.31;;;7.55;76.41
68230;BME280;55048;52.220;5.160;2023-03-04T08:40:12;102334.97;;;6.55;76.06
68230;BME280;55048;52.220;5.160;2023-03-04T08:42:37;102522.69;;;7.88;76.49
68230;BME280;55048;52.220;5.160;2023-03-04T08:45:03;102523.72;;;8.02;76.16
68230;BME280;55048;52.220;5.160;2023-03-04T08:47:28;102568.78;;;8.25;76.62
68230;BME280;55048;52.220;5.160;2023-03-04T08:49:54;102570.97;;;8.21;76.14
68230;BME280;55048;52.220;5.160;2023-03-04T08:52:19;102495.91;;;7.83;76.17
68230;BME280;55048;52.220;5.160;2023-03-04T08:54:45;102494.44;;;7.80;76.15
68230;BME280;55048;52.220;5.160;2023-03-04T08:57:10;102571.38;;;8.10;77.16
68230;BME280;55048;52.220;5.160;2023-03-04T08:59:35;102499.69;;;7.65;78.56
68230;BME280;55048;52.220;5.160;2023-03-04T09:02:01;102508.22;;;7.76;77.82
68230;BME280;55048;52.220;5.160;2023-03-04T09:04:26;102450.19;;;7.43;77.94
68230;BME280;55048;52.220;5.160;2023-03-04T09:06:52;102568.38;;;8.13;79.13
68230;BME280;55048;52.220;5.160;2023-03-04T09:09:17;102560.09;;;8.16;78.71
68230;BME280;55048;52.220;5.160;2023-03-04T09:11:42;102469.03;;;7.71;78.13
68230;BME280;55048;52.220;5.160;2023-03-04T09:14:08;102599.13;;;8.45;78.15
68230;BME280;55048;52.220;5.160;2023-03-04T09:16:33;102563.19;;;8.42;77.66
68230;BME280;55048;52.220;5.160;2023-03-04T09:18:59;102426.00;;;7.69;77.65
68230;BME280;55048;52.220;5.160;2023-03-04T09:21:25;102508.28;;;8.28;77.28
68230;BME280;55048;52.220;5.160;2023-03-04T09:23:50;102482.97;;;8.26;77.69
68230;BME280;55048;52.220;5.160;2023-03-04T09:26:20;102557.22;;;8.78;77.59
68230;BME280;55048;52.220;5.160;2023-03-04T09:28:49;102417.44;;;7.82;77.95
68230;BME280;55048;52.220;5.160;2023-03-04T09:31:14;102464.69;;;8.16;77.38
68230;BME280;55048;52.220;5.160;2023-03-04T09:33:40;102554.81;;;8.83;77.22
68230;BME280;55048;52.220;5.160;2023-03-04T09:36:09;102461.66;;;8.19;77.39
68230;BME280;55048;52.220;5.160;2023-03-04T09:38:35;102361.22;;;7.42;77.38
68230;BME280;55048;52.220;5.160;2023-03-04T09:41:06;102558.94;;;8.71;77.60
68230;BME280;55048;52.220;5.160;2023-03-04T09:43:32;102514.75;;;8.49;77.76
68230;BME280;55048;52.220;5.160;2023-03-04T09:46:01;102567.09;;;8.84;78.99
68230;BME280;55048;52.220;5.160;2023-03-04T09:48:42;102561.88;;;8.91;78.33
68230;BME280;55048;52.220;5.160;2023-03-04T09:51:21;102537.69;;;8.56;78.44
68230;BME280;55048;52.220;5.160;2023-03-04T09:54:04;102514.84;;;8.55;78.36
68230;BME280;55048;52.220;5.160;2023-03-04T09:56:34;102317.38;;;7.39;78.06
68230;BME280;55048;52.220;5.160;2023-03-04T09:59:10;102555.56;;;8.77;77.90
68230;BME280;55048;52.220;5.160;2023-03-04T10:01:53;102543.94;;;8.93;77.95
68230;BME280;55048;52.220;5.160;2023-03-04T10:04:28;102540.56;;;9.14;77.41
68230;BME280;55048;52.220;5.160;2023-03-04T10:06:55;102404.34;;;8.33;76.86
68230;BME280;55048;52.220;5.160;2023-03-04T10:09:27;102542.06;;;9.23;76.34
68230;BME280;55048;52.220;5.160;2023-03-04T10:12:01;102491.06;;;8.91;76.18
68230;BME280;55048;52.220;5.160;2023-03-04T10:14:37;102517.03;;;9.11;76.19
68230;BME280;55048;52.220;5.160;2023-03-04T10:17:18;102530.72;;;9.29;76.24
68230;BME280;55048;52.220;5.160;2023-03-04T10:25:17;102537.06;;;8.84;79.49
68230;BME280;55048;52.220;5.160;2023-03-04T10:28:11;102536.81;;;8.93;79.56
68230;BME280;55048;52.220;5.160;2023-03-04T10:30:45;102541.19;;;9.01;79.20
68230;BME280;55048;52.220;5.160;2023-03-04T10:33:14;102544.47;;;9.03;79.68
68230;BME280;55048;52.220;5.160;2023-03-04T10:35:44;102536.06;;;9.00;80.13
68230;BME280;55048;52.220;5.160;2023-03-04T10:38:11;102346.00;;;7.74;80.65
68230;BME280;55048;52.220;5.160;2023-03-04T10:40:39;102532.88;;;8.89;81.73
68230;BME280;55048;52.220;5.160;2023-03-04T10:43:05;102358.09;;;7.76;82.66
68230;BME280;55048;52.220;5.160;2023-03-04T10:45:38;102510.91;;;8.81;81.85
68230;BME280;55048;52.220;5.160;2023-03-04T10:48:04;102453.91;;;8.91;81.67
68230;BME280;55048;52.220;5.160;2023-03-04T10:50:29;102337.72;;;8.06;81.88
68230;BME280;55048;52.220;5.160;2023-03-04T10:53:19;102305.28;;;8.19;81.11
68230;BME280;55048;52.220;5.160;2023-03-04T10:55:45;102258.63;;;8.03;81.24
68230;BME280;55048;52.220;5.160;2023-03-04T10:58:42;102532.81;;;9.34;82.58
68230;BME280;55048;52.220;5.160;2023-03-04T11:01:15;102277.06;;;8.11;80.99
68230;BME280;55048;52.220;5.160;2023-03-04T11:07:29;102063.66;;;6.62;80.87
68230;BME280;55048;52.220;5.160;2023-03-04T11:09:54;102370.81;;;8.25;81.20
68230;BME280;55048;52.220;5.160;2023-03-04T11:12:33;102335.25;;;7.75;82.74
68230;BME280;55048;52.220;5.160;2023-03-04T11:14:59;102487.41;;;8.63;82.31
68230;BME280;55048;52.220;5.160;2023-03-04T11:17:26;102546.88;;;8.83;83.44
68230;BME280;55048;52.220;5.160;2023-03-04T11:22:30;102507.78;;;8.62;82.58
68230;BME280;55048;52.220;5.160;2023-03-04T11:25:01;102321.28;;;7.29;82.45
68230;BME280;55048;52.220;5.160;2023-03-04T11:27:41;102513.00;;;8.71;83.58
68230;BME280;55048;52.220;5.160;2023-03-04T11:32:50;102539.63;;;9.07;82.40
68230;BME280;55048;52.220;5.160;2023-03-04T11:35:33;102504.38;;;9.13;81.71
68230;BME280;55048;52.220;5.160;2023-03-04T11:40:42;102491.00;;;9.57;80.49
68230;BME280;55048;52.220;5.160;2023-03-04T11:43:14;102453.88;;;9.42;79.12
68230;BME280;55048;52.220;5.160;2023-03-04T11:51:35;102471.03;;;9.25;77.07
68230;BME280;55048;52.220;5.160;2023-03-04T11:56:49;102510.31;;;9.30;78.26
68230;BME280;55048;52.220;5.160;2023-03-04T12:04:26;102518.66;;;9.12;78.93
68230;BME280;55048;52.220;5.160;2023-03-04T12:09:41;102511.84;;;8.73;80.27
68230;BME280;55048;52.220;5.160;2023-03-04T12:12:34;102490.91;;;8.63;80.15
68230;BME280;55048;52.220;5.160;2023-03-04T12:15:32;102500.84;;;8.47;81.89
68230;BME280;55048;52.220;5.160;2023-03-04T12:20:43;102490.69;;;8.80;80.97
68230;BME280;55048;52.220;5.160;2023-03-04T12:26:01;102493.78;;;8.98;80.35
68230;BME280;55048;52.220;5.160;2023-03-04T12:28:46;102466.28;;;8.69;80.12
68230;BME280;55048;52.220;5.160;2023-03-04T12:31:35;102479.06;;;9.10;80.02
68230;BME280;55048;52.220;5.160;2023-03-04T12:36:56;102403.06;;;8.88;78.83
68230;BME280;55048;52.220;5.160;2023-03-04T12:42:54;102457.34;;;9.43;78.16
68230;BME280;55048;52.220;5.160;2023-03-04T12:45:35;102455.81;;;9.55;75.87
68230;BME280;55048;52.220;5.160;2023-03-04T12:48:29;102363.66;;;9.06;74.41
68230;BME280;55048;52.220;5.160;2023-03-04T12:53:48;102449.50;;;9.35;72.16
68230;BME280;55048;52.220;5.160;2023-03-04T12:56:25;102417.34;;;9.08;72.48
68230;BME280;55048;52.220;5.160;2023-03-04T12:58:52;102416.38;;;8.94;72.21
68230;BME280;55048;52.220;5.160;2023-03-04T13:01:42;102462.97;;;8.97;72.87
68230;BME280;55048;52.220;5.160;2023-03-04T13:07:06;102461.28;;;9.11;73.03
68230;BME280;55048;52.220;5.160;2023-03-04T13:09:37;102414.88;;;8.71;72.61
68230;BME280;55048;52.220;5.160;2023-03-04T13:12:21;102293.41;;;8.15;72.51
68230;BME280;55048;52.220;5.160;2023-03-04T13:17:54;102447.16;;;9.25;71.95
68230;BME280;55048;52.220;5.160;2023-03-04T13:23:21;102456.69;;;9.41;71.14
68230;BME280;55048;52.220;5.160;2023-03-04T13:25:47;102405.00;;;9.15;71.10
68230;BME280;55048;52.220;5.160;2023-03-04T13:28:20;102390.19;;;9.06;70.59
68230;BME280;55048;52.220;5.160;2023-03-04T13:38:22;102417.91;;;9.04;71.15
68230;BME280;55048;52.220;5.160;2023-03-04T13:43:39;102418.22;;;8.94;70.32
68230;BME280;55048;52.220;5.160;2023-03-04T13:51:31;102413.19;;;8.84;70.57
68230;BME280;55048;52.220;5.160;2023-03-04T13:58:52;102349.91;;;8.45;69.02
68230;BME280;55048;52.220;5.160;2023-03-04T14:01:33;102445.09;;;9.06;68.96
68230;BME280;55048;52.220;5.160;2023-03-04T14:04:00;102282.06;;;8.06;68.29
68230;BME280;55048;52.220;5.160;2023-03-04T14:06:28;102374.78;;;8.80;68.36
68230;BME280;55048;52.220;5.160;2023-03-04T14:08:54;102416.44;;;9.16;67.93
68230;BME280;55048;52.220;5.160;2023-03-04T14:11:25;102308.88;;;8.62;67.95
68230;BME280;55048;52.220;5.160;2023-03-04T14:13:52;102382.03;;;9.08;67.04
68230;BME280;55048;52.220;5.160;2023-03-04T14:16:25;102395.25;;;9.23;67.06
68230;BME280;55048;52.220;5.160;2023-03-04T14:18:57;102343.75;;;8.96;65.89
68230;BME280;55048;52.220;5.160;2023-03-04T14:21:22;102338.16;;;8.90;66.35
68230;BME280;55048;52.220;5.160;2023-03-04T14:24:06;102328.03;;;8.43;65.57